Time;durP1;ratioP1;P1;durP2;ratioP2;P2;SDS_P1;SDS_P2;PMS_P1;PMS_P2;Temp;Humidity;BMP_temperature;BMP_pressure;BME280_temperature;BME280_humidity;BME280_pressure;Samples;Min_cycle;Max_cycle;Signal;HPM_P1;HPM_P2
2022/11/06 00:00:33;;;;;;;9.32;4.28;;;11.30;99.90;;;;;;2069446;28;20084;-72
2022/11/06 00:01:33;;;;;;;10.38;4.43;;;11.30;99.90;;;;;;2068226;28;20077;-72
2022/11/06 00:02:34;;;;;;;7.78;4.00;;;11.30;99.90;;;;;;2068872;28;20122;-72
2022/11/06 00:03:35;;;;;;;5.90;3.40;;;11.30;99.90;;;;;;2067384;28;20025;-72
2022/11/06 00:04:36;;;;;;;5.85;4.10;;;11.30;99.90;;;;;;2069440;28;20615;-72
2022/11/06 00:07:00;;;;;;;6.63;3.70;;;11.40;99.90;;;;;;2071096;28;20034;-72
2022/11/06 00:08:01;;;;;;;9.23;4.03;;;11.40;99.90;;;;;;2067699;28;20029;-72
2022/11/06 00:09:13;;;;;;;6.07;3.50;;;11.40;99.90;;;;;;2070725;28;20026;-72
2022/11/06 00:10:15;;;;;;;6.13;4.10;;;11.40;99.90;;;;;;2067648;28;20046;-72
2022/11/06 00:11:17;;;;;;;10.23;4.50;;;11.30;99.90;;;;;;2068657;28;20038;-72
2022/11/06 00:12:17;;;;;;;7.78;4.30;;;11.40;99.90;;;;;;2069756;28;20470;-72
2022/11/06 00:13:18;;;;;;;6.07;3.53;;;11.40;99.90;;;;;;2068767;28;20382;-72
2022/11/06 00:14:19;;;;;;;6.93;3.60;;;11.40;99.90;;;;;;2069723;28;20034;-72
2022/11/06 00:15:19;;;;;;;6.00;3.85;;;11.40;99.90;;;;;;2070346;28;20022;-72
2022/11/06 00:16:20;;;;;;;7.03;4.13;;;11.40;99.90;;;;;;2069760;28;20025;-72
2022/11/06 00:17:21;;;;;;;6.65;4.10;;;11.40;99.90;;;;;;2069339;28;20402;-72
2022/11/06 00:18:25;;;;;;;6.53;3.88;;;11.40;99.90;;;;;;2068062;28;20018;-72
2022/11/06 00:19:25;;;;;;;7.90;3.78;;;11.40;99.90;;;;;;2068729;28;20029;-72
2022/11/06 00:20:26;;;;;;;6.70;3.55;;;11.40;99.90;;;;;;2071225;28;20026;-72
2022/11/06 00:21:29;;;;;;;8.48;3.97;;;11.40;99.90;;;;;;2070027;28;20550;-72
2022/11/06 00:22:32;;;;;;;4.72;3.28;;;11.40;99.90;;;;;;2069110;28;20018;-72
2022/11/06 00:23:33;;;;;;;7.00;3.80;;;11.40;99.90;;;;;;2068444;28;20026;-72
2022/11/06 00:24:33;;;;;;;7.15;3.78;;;11.40;99.90;;;;;;2070044;28;20092;-72
2022/11/06 00:25:38;;;;;;;8.85;3.67;;;11.40;99.90;;;;;;2069624;28;20659;-72
2022/11/06 00:26:38;;;;;;;7.47;3.58;;;11.40;99.90;;;;;;2071258;28;20025;-72
2022/11/06 00:27:40;;;;;;;6.30;3.47;;;11.40;99.90;;;;;;2069905;28;20502;-73
2022/11/06 00:28:41;;;;;;;9.15;4.13;;;11.40;99.90;;;;;;2069606;28;20026;-72
2022/11/06 00:29:41;;;;;;;5.68;3.75;;;11.30;99.90;;;;;;2069964;28;20026;-72
2022/11/06 00:30:42;;;;;;;10.02;4.88;;;11.30;99.90;;;;;;2069184;28;20038;-72
2022/11/06 00:31:42;;;;;;;6.97;4.25;;;11.40;99.90;;;;;;2067874;28;20033;-72
2022/11/06 00:32:43;;;;;;;11.10;4.35;;;11.30;99.90;;;;;;2068362;28;20026;-72
2022/11/06 00:33:44;;;;;;;6.32;3.95;;;11.30;99.90;;;;;;2068292;28;20050;-72
2022/11/06 00:34:45;;;;;;;5.93;4.40;;;11.40;99.90;;;;;;2069938;28;20029;-72
2022/11/06 00:35:46;;;;;;;6.72;4.13;;;11.40;99.90;;;;;;2070679;28;20030;-72
2022/11/06 00:36:46;;;;;;;7.13;4.20;;;11.40;99.90;;;;;;2070296;28;20097;-72
2022/11/06 00:37:47;;;;;;;7.35;3.72;;;11.30;99.90;;;;;;2069375;28;20037;-72
2022/11/06 00:38:51;;;;;;;7.95;4.25;;;11.30;99.90;;;;;;2068656;28;20034;-72
2022/11/06 00:39:52;;;;;;;6.40;3.47;;;11.40;99.90;;;;;;2070833;28;20112;-72
2022/11/06 00:40:52;;;;;;;5.90;3.55;;;11.30;99.90;;;;;;2075090;28;20040;-72
2022/11/06 00:41:53;;;;;;;6.63;4.07;;;11.30;99.90;;;;;;2076571;28;20059;-72
2022/11/06 00:42:54;;;;;;;9.52;3.38;;;11.30;99.90;;;;;;2069471;28;20031;-72
2022/11/06 00:44:00;;;;;;;12.13;3.70;;;11.30;99.90;;;;;;2070024;28;20038;-72
2022/11/06 00:45:04;;;;;;;5.95;3.65;;;11.30;99.90;;;;;;2068409;28;20038;-72
2022/11/06 00:46:06;;;;;;;8.27;3.20;;;11.30;99.90;;;;;;2069116;28;20042;-72
2022/11/06 00:47:07;;;;;;;7.00;3.75;;;11.30;99.90;;;;;;2069816;28;20034;-72
2022/11/06 00:48:07;;;;;;;8.75;4.10;;;11.30;99.90;;;;;;2069723;28;20035;-72
2022/11/06 00:49:08;;;;;;;9.73;3.80;;;11.20;99.90;;;;;;2069585;28;20038;-72
2022/11/06 00:50:09;;;;;;;9.13;3.60;;;11.20;99.90;;;;;;2070170;28;20032;-72
2022/11/06 00:51:18;;;;;;;5.78;3.75;;;11.20;99.90;;;;;;2070060;28;20132;-72
2022/11/06 00:52:19;;;;;;;12.90;3.75;;;11.20;99.90;;;;;;2071932;28;20452;-72
2022/11/06 00:53:19;;;;;;;6.82;3.65;;;11.10;99.90;;;;;;2070809;28;20038;-72
2022/11/06 00:54:20;;;;;;;8.68;3.78;;;11.20;99.90;;;;;;2070270;28;20034;-72
2022/11/06 00:55:23;;;;;;;7.40;3.95;;;11.20;99.90;;;;;;2071234;28;20036;-72
2022/11/06 00:56:25;;;;;;;5.95;2.97;;;11.10;99.90;;;;;;2071159;28;20014;-72
2022/11/06 00:57:25;;;;;;;5.28;3.42;;;11.10;99.90;;;;;;2070606;28;20026;-72
2022/11/06 00:58:27;;;;;;;4.72;3.15;;;11.10;99.90;;;;;;2070853;28;20109;-72
2022/11/06 00:59:27;;;;;;;6.55;2.95;;;11.10;99.90;;;;;;2071738;28;20026;-72
2022/11/06 01:00:28;;;;;;;7.20;3.40;;;11.10;99.90;;;;;;2070800;28;20018;-72
2022/11/06 01:01:35;;;;;;;8.90;3.42;;;11.10;99.90;;;;;;2071243;28;20025;-72
2022/11/06 01:02:36;;;;;;;6.05;3.25;;;11.10;99.90;;;;;;2070701;28;20064;-72
2022/11/06 01:03:38;;;;;;;6.35;2.60;;;11.10;99.90;;;;;;2070633;28;20466;-72
2022/11/06 01:04:39;;;;;;;6.15;3.00;;;11.10;99.90;;;;;;2069883;28;20029;-72
2022/11/06 01:05:40;;;;;;;8.30;3.67;;;11.10;99.90;;;;;;2071285;28;20088;-72
2022/11/06 01:06:44;;;;;;;6.65;3.35;;;11.10;99.90;;;;;;2071084;28;20022;-72
2022/11/06 01:07:45;;;;;;;7.63;3.33;;;11.10;99.90;;;;;;2071154;28;20490;-72
2022/11/06 01:08:47;;;;;;;9.68;2.95;;;11.00;99.90;;;;;;2070411;28;20462;-72
2022/11/06 01:09:47;;;;;;;6.72;3.38;;;11.10;99.90;;;;;;2070057;28;20116;-72
2022/11/06 01:10:48;;;;;;;5.22;3.40;;;11.00;99.90;;;;;;2069633;28;20038;-72
2022/11/06 01:11:52;;;;;;;5.10;3.20;;;11.00;99.90;;;;;;2071649;28;20026;-72
2022/11/06 01:12:52;;;;;;;6.10;3.40;;;11.00;99.90;;;;;;2069635;28;20093;-72
2022/11/06 01:13:55;;;;;;;7.18;3.10;;;11.00;99.90;;;;;;2069931;28;20026;-72
2022/11/06 01:14:56;;;;;;;7.88;3.28;;;11.00;99.90;;;;;;2070331;28;20029;-72
2022/11/06 01:15:56;;;;;;;4.53;3.10;;;11.00;99.90;;;;;;2071025;28;20029;-72
2022/11/06 01:16:57;;;;;;;8.82;3.00;;;11.00;99.90;;;;;;2069985;28;20026;-72
2022/11/06 01:17:59;;;;;;;5.35;3.20;;;11.00;99.90;;;;;;2070467;28;20038;-72
2022/11/06 01:19:00;;;;;;;8.88;3.30;;;11.00;99.90;;;;;;2071651;28;20120;-72
2022/11/06 01:20:02;;;;;;;8.05;2.95;;;11.00;99.90;;;;;;2070061;28;20080;-72
2022/11/06 01:21:05;;;;;;;8.68;3.20;;;11.00;99.90;;;;;;2070060;28;20029;-72
2022/11/06 01:22:05;;;;;;;7.78;3.67;;;11.00;99.90;;;;;;2071216;28;20045;-72
2022/11/06 01:23:06;;;;;;;4.88;2.72;;;10.90;99.90;;;;;;2069693;28;20034;-72
2022/11/06 01:24:12;;;;;;;8.18;2.95;;;10.90;99.90;;;;;;2070124;28;20096;-72
2022/11/06 01:25:12;;;;;;;9.25;3.25;;;10.90;99.90;;;;;;2069492;28;20036;-72
2022/11/06 01:26:14;;;;;;;7.00;3.35;;;10.90;99.90;;;;;;2069302;28;20108;-72
2022/11/06 01:27:14;;;;;;;6.07;2.88;;;10.90;99.90;;;;;;2069666;28;20081;-72
2022/11/06 01:28:15;;;;;;;7.45;3.13;;;10.90;99.90;;;;;;2071882;28;20038;-72
2022/11/06 01:29:17;;;;;;;6.60;3.17;;;10.90;99.90;;;;;;2070860;28;20104;-72
2022/11/06 01:30:18;;;;;;;8.65;3.30;;;10.90;99.90;;;;;;2071370;28;20049;-72
2022/11/06 01:31:21;;;;;;;8.55;3.05;;;10.90;99.90;;;;;;2070193;28;20080;-72
2022/11/06 01:32:22;;;;;;;8.25;4.10;;;10.90;99.90;;;;;;2070350;28;20030;-72
2022/11/06 01:33:23;;;;;;;4.57;2.53;;;10.90;99.90;;;;;;2070980;28;20027;-72
2022/11/06 01:34:24;;;;;;;9.98;3.63;;;10.90;99.90;;;;;;2070253;28;20029;-72
2022/11/06 01:35:24;;;;;;;4.55;2.83;;;10.90;99.90;;;;;;2070106;28;20018;-72
2022/11/06 01:36:26;;;;;;;9.05;3.58;;;10.90;99.90;;;;;;2068460;28;20084;-72
2022/11/06 01:37:27;;;;;;;6.72;2.90;;;10.90;99.90;;;;;;2067512;28;20371;-72
2022/11/06 01:38:27;;;;;;;5.32;2.50;;;10.80;99.90;;;;;;2070097;28;20083;-72
2022/11/06 01:39:28;;;;;;;6.28;2.83;;;10.90;99.90;;;;;;2070374;28;20022;-72
2022/11/06 01:40:29;;;;;;;8.85;3.40;;;10.90;99.90;;;;;;2069775;28;20470;-72
2022/11/06 01:41:33;;;;;;;4.57;3.28;;;10.80;99.90;;;;;;2068780;28;20490;-72
2022/11/06 01:42:34;;;;;;;4.30;2.58;;;10.80;99.90;;;;;;2069596;28;20096;-72
2022/11/06 01:43:53;;;;;;;4.88;2.85;;;10.80;99.90;;;;;;2075328;28;20539;-72
2022/11/06 01:45:23;;;;;;;5.07;2.63;;;10.80;99.90;;;;;;2077192;28;20029;-72
2022/11/06 01:46:29;;;;;;;8.98;2.60;;;10.80;99.90;;;;;;2070310;28;20467;-72
2022/11/06 01:47:30;;;;;;;4.82;2.65;;;10.80;99.90;;;;;;2069746;28;20045;-72
2022/11/06 01:48:31;;;;;;;6.18;2.67;;;10.70;99.90;;;;;;2068900;28;20091;-72
2022/11/06 01:49:37;;;;;;;6.07;3.00;;;10.80;99.90;;;;;;2070881;28;20481;-72
2022/11/06 01:50:40;;;;;;;10.82;2.97;;;10.80;99.90;;;;;;2070340;28;20033;-72
2022/11/06 01:51:57;;;;;;;7.70;2.90;;;10.80;99.90;;;;;;2069432;28;20032;-72
2022/11/06 01:53:01;;;;;;;7.40;2.25;;;10.80;99.90;;;;;;2070782;28;20062;-72
2022/11/06 01:54:06;;;;;;;4.15;2.58;;;10.80;99.90;;;;;;2070504;28;20061;-72
2022/11/06 01:55:31;;;;;;;3.50;2.33;;;10.80;99.90;;;;;;2070449;28;20025;-72
2022/11/06 01:56:32;;;;;;;9.43;2.70;;;10.80;99.90;;;;;;2069815;28;20030;-72
2022/11/06 01:57:33;;;;;;;5.57;2.40;;;10.80;99.90;;;;;;2071355;28;20018;-72
2022/11/06 01:58:35;;;;;;;5.22;2.60;;;10.80;99.90;;;;;;2070034;28;20037;-72
2022/11/06 01:59:47;;;;;;;6.10;2.83;;;10.80;99.90;;;;;;2069494;28;20079;-72
2022/11/06 02:00:48;;;;;;;4.45;2.33;;;10.80;99.90;;;;;;2071047;28;20040;-72
2022/11/06 02:01:50;;;;;;;7.63;2.60;;;10.80;99.90;;;;;;2069857;28;20044;-72
2022/11/06 02:02:51;;;;;;;4.82;2.75;;;10.80;99.90;;;;;;2069221;28;20038;-72
2022/11/06 02:04:13;;;;;;;9.77;2.85;;;10.80;99.90;;;;;;2070076;28;20025;-72
2022/11/06 02:05:13;;;;;;;6.18;2.88;;;10.70;99.90;;;;;;2069986;28;20493;-72
2022/11/06 02:06:14;;;;;;;5.65;2.30;;;10.70;99.90;;;;;;2070520;28;20395;-72
2022/11/06 02:07:17;;;;;;;9.95;3.00;;;10.80;99.90;;;;;;2062673;28;20089;-72
2022/11/06 02:08:20;;;;;;;5.35;2.33;;;10.80;99.90;;;;;;2070071;28;20037;-72
2022/11/06 02:09:21;;;;;;;7.47;2.60;;;10.80;99.90;;;;;;2078410;28;20068;-72
2022/11/06 02:10:22;;;;;;;7.40;2.70;;;10.80;99.90;;;;;;2070035;28;20095;-72
2022/11/06 02:11:22;;;;;;;6.13;2.80;;;10.70;99.90;;;;;;2068112;28;20038;-72
2022/11/06 02:13:01;;;;;;;6.88;2.50;;;10.80;99.90;;;;;;2070201;28;20425;-72
2022/11/06 02:14:13;;;;;;;4.28;2.28;;;10.70;99.90;;;;;;2069000;28;20031;-72
2022/11/06 02:15:36;;;;;;;8.50;2.58;;;10.70;99.90;;;;;;2071054;28;20026;-72
2022/11/06 02:16:49;;;;;;;3.85;2.40;;;10.70;99.90;;;;;;2070388;28;20030;-72
2022/11/06 02:18:30;;;;;;;5.25;2.70;;;10.70;99.90;;;;;;2070659;28;20113;-72
2022/11/06 02:19:41;;;;;;;5.45;2.65;;;10.70;99.90;;;;;;2035895;29;20517;-72
2022/11/06 02:20:55;;;;;;;9.80;2.90;;;10.70;99.90;;;;;;2069258;28;20065;-72
2022/11/06 02:22:14;;;;;;;7.15;2.35;;;10.70;99.90;;;;;;2069747;28;20069;-72
2022/11/06 02:23:34;;;;;;;7.40;2.65;;;10.70;99.90;;;;;;2069757;28;20030;-72
2022/11/06 02:25:07;;;;;;;4.10;2.40;;;10.60;99.90;;;;;;2070696;28;20025;-72
2022/11/06 02:26:31;;;;;;;7.28;2.42;;;10.60;99.90;;;;;;2069721;28;20055;-73
2022/11/06 02:27:33;;;;;;;6.13;2.53;;;10.60;99.90;;;;;;2067859;28;20018;-72
2022/11/06 02:28:38;;;;;;;4.65;2.28;;;10.60;99.90;;;;;;2069283;28;20022;-72
2022/11/06 02:30:10;;;;;;;8.43;2.42;;;10.70;99.90;;;;;;2070664;28;20018;-72
2022/11/06 02:31:16;;;;;;;4.85;2.70;;;10.60;99.90;;;;;;2055167;28;20046;-72
2022/11/06 02:32:22;;;;;;;4.93;2.30;;;10.60;99.90;;;;;;2069867;28;20030;-72
2022/11/06 02:33:32;;;;;;;7.20;2.78;;;10.60;99.90;;;;;;2069729;28;20556;-72
2022/11/06 02:34:35;;;;;;;8.00;2.80;;;10.60;99.90;;;;;;2069501;28;20470;-72
2022/11/06 02:35:42;;;;;;;6.70;2.63;;;10.60;99.90;;;;;;2069127;28;20076;-72
2022/11/06 02:36:50;;;;;;;4.35;2.85;;;10.70;99.90;;;;;;2071150;28;20021;-72
2022/11/06 02:38:02;;;;;;;5.88;2.72;;;10.70;99.90;;;;;;2070088;28;20025;-72
2022/11/06 02:39:10;;;;;;;7.13;2.40;;;10.70;99.90;;;;;;2070100;28;20085;-72
2022/11/06 02:40:13;;;;;;;4.50;2.65;;;10.60;99.90;;;;;;2069032;28;20057;-72
2022/11/06 02:41:21;;;;;;;9.90;2.92;;;10.60;99.90;;;;;;2069055;28;20022;-72
2022/11/06 02:42:24;;;;;;;9.40;2.65;;;10.70;99.90;;;;;;2069501;28;20026;-72
2022/11/06 02:43:35;;;;;;;5.38;2.65;;;10.60;99.90;;;;;;2068828;28;20549;-72
2022/11/06 02:44:37;;;;;;;5.30;2.38;;;10.70;99.90;;;;;;2069616;28;20030;-72
2022/11/06 02:45:51;;;;;;;5.85;2.55;;;10.60;99.90;;;;;;2070024;28;20029;-72
2022/11/06 02:47:00;;;;;;;6.97;2.45;;;10.60;99.90;;;;;;2070275;28;20022;-72
2022/11/06 02:48:03;;;;;;;7.00;2.80;;;10.60;99.90;;;;;;2070034;28;20068;-72
2022/11/06 02:49:08;;;;;;;6.32;2.35;;;10.60;99.90;;;;;;2076791;28;20762;-72
2022/11/06 02:50:17;;;;;;;6.25;2.35;;;10.60;99.90;;;;;;2077332;28;20034;-72
2022/11/06 02:51:23;;;;;;;4.65;2.42;;;10.60;99.90;;;;;;2069253;28;20493;-72
2022/11/06 02:52:34;;;;;;;5.63;2.47;;;10.60;99.90;;;;;;2070878;28;20030;-72
2022/11/06 02:53:35;;;;;;;;;;;10.60;99.90;;;;;;2070656;28;20029;-72
2022/11/06 02:54:41;;;;;;;7.75;2.88;;;10.50;99.90;;;;;;2070126;28;19927;-72
2022/11/06 02:55:47;;;;;;;5.75;2.10;;;10.60;99.90;;;;;;2069838;28;20105;-72
2022/11/06 02:56:51;;;;;;;7.25;2.78;;;10.60;99.90;;;;;;2069073;28;20402;-72
2022/11/06 02:57:56;;;;;;;7.43;2.20;;;10.60;99.90;;;;;;2068682;28;20132;-72
2022/11/06 02:58:59;;;;;;;5.47;2.38;;;10.60;99.90;;;;;;2069525;28;20096;-72
2022/11/06 03:00:07;;;;;;;8.55;2.53;;;10.60;99.90;;;;;;2069955;28;20109;-72
2022/11/06 03:01:29;;;;;;;4.50;2.45;;;10.60;99.90;;;;;;2069881;28;20033;-72
2022/11/06 03:02:39;;;;;;;10.40;2.75;;;10.60;99.90;;;;;;2068587;28;20383;-72
2022/11/06 03:03:46;;;;;;;12.02;2.97;;;10.60;99.90;;;;;;2070357;28;20112;-72
2022/11/06 03:04:54;;;;;;;5.85;2.13;;;10.60;99.90;;;;;;2069950;28;20117;-72
2022/11/06 03:06:10;;;;;;;9.95;2.55;;;10.60;99.90;;;;;;2069175;28;20504;-72
2022/11/06 03:07:18;;;;;;;6.35;2.10;;;10.60;99.90;;;;;;2067225;28;20018;-72
2022/11/06 03:08:45;;;;;;;6.65;2.35;;;10.60;99.90;;;;;;2070450;28;20045;-72
2022/11/06 03:09:47;;;;;;;9.55;2.42;;;10.60;99.90;;;;;;2072814;28;20489;-72
2022/11/06 03:11:00;;;;;;;6.40;2.47;;;10.60;99.90;;;;;;2076438;28;20034;-72
2022/11/06 03:12:09;;;;;;;7.10;2.90;;;10.60;99.90;;;;;;2070085;28;20026;-72
2022/11/06 03:13:26;;;;;;;8.43;2.45;;;10.60;99.90;;;;;;2067763;28;20032;-72
2022/11/06 03:14:46;;;;;;;5.93;2.63;;;10.60;99.90;;;;;;2067858;28;20025;-72
2022/11/06 03:16:04;;;;;;;6.43;2.50;;;10.60;99.90;;;;;;2068452;28;20160;-72
2022/11/06 03:17:44;;;;;;;8.20;2.40;;;10.50;99.90;;;;;;2069838;28;20617;-72
2022/11/06 03:19:01;;;;;;;4.30;2.22;;;10.50;99.90;;;;;;2066785;28;20041;-72
2022/11/06 03:20:30;;;;;;;6.03;2.25;;;10.50;99.90;;;;;;2070859;28;20037;-72
2022/11/06 03:21:42;;;;;;;6.30;2.13;;;10.50;99.90;;;;;;2068602;28;20033;-72
2022/11/06 03:23:01;;;;;;;7.95;2.55;;;10.50;99.90;;;;;;2069829;28;20057;-72
2022/11/06 03:24:11;;;;;;;7.22;2.53;;;10.50;99.90;;;;;;2066852;28;20029;-72
2022/11/06 03:25:23;;;;;;;4.82;2.10;;;10.50;99.90;;;;;;2067609;28;20026;-72
2022/11/06 03:26:34;;;;;;;7.68;2.42;;;10.50;99.90;;;;;;2069005;28;20604;-72
2022/11/06 03:27:55;;;;;;;6.63;2.30;;;10.50;99.90;;;;;;2069654;28;20032;-72
2022/11/06 03:29:07;;;;;;;9.68;2.55;;;10.50;99.90;;;;;;2067536;28;20045;-72
2022/11/06 03:30:10;;;;;;;6.93;2.15;;;10.50;99.90;;;;;;2068148;28;20030;-72
2022/11/06 03:31:16;;;;;;;6.63;2.28;;;10.50;99.90;;;;;;2067823;28;20029;-72
2022/11/06 03:32:22;;;;;;;6.05;2.38;;;10.50;99.90;;;;;;2067085;28;20061;-72
2022/11/06 03:33:37;;;;;;;6.75;2.53;;;10.50;99.90;;;;;;2067741;28;20026;-72
2022/11/06 03:34:46;;;;;;;4.68;2.15;;;10.50;99.90;;;;;;2067361;28;20072;-72
2022/11/06 03:35:51;;;;;;;4.32;2.00;;;10.50;99.90;;;;;;2066960;28;20567;-72
2022/11/06 03:37:01;;;;;;;9.15;2.90;;;10.50;99.90;;;;;;2067709;28;20034;-72
2022/11/06 03:38:24;;;;;;;6.32;2.53;;;10.50;99.90;;;;;;2070171;28;20470;-72
2022/11/06 03:39:36;;;;;;;6.65;2.05;;;10.50;99.90;;;;;;2069893;28;20128;-72
2022/11/06 03:40:43;;;;;;;5.90;2.17;;;10.50;99.90;;;;;;2069456;28;20046;-72
2022/11/06 03:42:03;;;;;;;5.85;2.40;;;10.50;99.90;;;;;;2068417;28;20026;-72
2022/11/06 03:43:05;;;;;;;;;;;10.50;99.90;;;;;;2070298;28;20715;-72
2022/11/06 03:44:11;;;;;;;6.47;2.10;;;10.40;99.90;;;;;;2069599;28;19935;-72
2022/11/06 03:45:19;;;;;;;6.97;2.60;;;10.50;99.90;;;;;;2069221;28;20030;-72
2022/11/06 03:46:23;;;;;;;9.02;2.70;;;10.50;99.90;;;;;;2069771;28;20046;-72
2022/11/06 03:48:03;;;;;;;5.75;2.15;;;10.50;99.90;;;;;;2070605;28;20029;-72
2022/11/06 03:49:09;;;;;;;10.88;2.80;;;10.50;99.90;;;;;;2061511;28;20126;-72
2022/11/06 03:50:26;;;;;;;6.55;2.30;;;10.50;99.90;;;;;;2069062;28;20038;-72
2022/11/06 03:51:44;;;;;;;5.95;2.17;;;10.50;99.90;;;;;;2069958;28;20132;-72
2022/11/06 03:53:01;;;;;;;4.43;2.05;;;10.50;99.90;;;;;;2068857;28;20490;-72
2022/11/06 03:54:09;;;;;;;3.97;1.80;;;10.50;99.90;;;;;;2070161;28;20113;-72
2022/11/06 03:55:20;;;;;;;3.78;1.83;;;10.50;99.90;;;;;;2067961;28;20070;-72
2022/11/06 03:56:24;;;;;;;6.50;2.20;;;10.50;99.90;;;;;;2068553;28;20105;-72
2022/11/06 03:57:34;;;;;;;3.75;2.08;;;10.50;99.90;;;;;;2069915;28;20034;-72
2022/11/06 03:58:38;;;;;;;4.90;2.10;;;10.50;99.90;;;;;;2069545;28;20032;-72
2022/11/06 03:59:43;;;;;;;7.78;2.45;;;10.50;99.90;;;;;;2069322;28;20061;-72
2022/11/06 04:00:44;;;;;;;6.05;2.25;;;10.50;99.90;;;;;;2070455;28;20061;-72
2022/11/06 04:01:46;;;;;;;5.93;2.10;;;10.50;99.90;;;;;;2069492;28;20029;-72
2022/11/06 04:03:03;;;;;;;8.70;2.17;;;10.50;99.90;;;;;;2068828;28;20025;-72
2022/11/06 04:04:11;;;;;;;4.90;2.20;;;10.50;99.90;;;;;;2069410;28;20378;-72
2022/11/06 04:05:21;;;;;;;7.75;2.58;;;10.50;99.90;;;;;;2065997;28;20484;-72
2022/11/06 04:06:31;;;;;;;6.40;1.95;;;10.50;99.90;;;;;;2068835;28;20030;-72
2022/11/06 04:07:40;;;;;;;5.30;2.40;;;10.50;99.90;;;;;;2068556;28;20408;-72
2022/11/06 04:14:24;;;;;;;6.43;2.22;;;10.50;99.90;;;;;;2068095;28;20034;-72
2022/11/06 04:15:29;;;;;;;5.10;1.90;;;10.50;99.90;;;;;;2068775;28;20029;-72
2022/11/06 04:16:37;;;;;;;4.00;1.98;;;10.50;99.90;;;;;;2070255;28;20065;-72
2022/11/06 04:17:39;;;;;;;10.07;2.45;;;10.50;99.90;;;;;;2068117;28;20037;-72
2022/11/06 04:18:40;;;;;;;6.40;2.42;;;10.50;99.90;;;;;;2069959;28;20025;-72
2022/11/06 04:19:50;;;;;;;6.25;2.00;;;10.60;99.90;;;;;;2068522;28;20030;-72
2022/11/06 04:21:29;;;;;;;;;;;10.60;99.90;;;;;;2067974;28;20552;-72
2022/11/06 04:22:50;;;;;;;5.05;2.28;;;10.50;99.90;;;;;;2065704;28;19992;-72
2022/11/06 04:27:49;;;;;;;2.55;1.70;;;10.50;99.90;;;;;;2068795;28;20033;-72
2022/11/06 04:29:18;;;;;;;6.03;2.30;;;10.40;99.90;;;;;;2069451;28;20077;-72
2022/11/06 04:30:19;;;;;;;7.10;1.83;;;10.50;99.90;;;;;;2067248;28;20045;-72
2022/11/06 04:31:36;;;;;;;6.00;2.28;;;10.40;99.90;;;;;;2071622;28;20041;-72
2022/11/06 04:33:15;;;;;;;7.07;2.30;;;10.50;99.90;;;;;;2070741;28;20048;-72
2022/11/06 04:34:39;;;;;;;5.82;2.10;;;10.50;99.90;;;;;;2071121;28;20493;-72
2022/11/06 04:35:55;;;;;;;7.95;2.03;;;10.40;99.90;;;;;;2071294;28;20088;-72
2022/11/06 04:37:20;;;;;;;4.68;2.00;;;10.40;99.90;;;;;;2071389;28;20034;-72
2022/11/06 04:38:38;;;;;;;5.50;2.13;;;10.40;99.90;;;;;;2067534;28;20073;-72
2022/11/06 04:40:09;;;;;;;5.40;1.85;;;10.40;99.90;;;;;;2071368;28;20033;-72
2022/11/06 04:41:11;;;;;;;;;;;10.40;99.90;;;;;;2071117;28;20030;-72
2022/11/06 04:42:24;;;;;;;6.97;2.35;;;10.40;99.90;;;;;;2071095;28;19913;-72
2022/11/06 04:43:44;;;;;;;3.20;1.70;;;10.40;99.90;;;;;;2071102;28;20026;-72
2022/11/06 04:44:57;;;;;;;6.75;2.28;;;10.40;99.90;;;;;;2073489;28;20378;-72
2022/11/06 04:45:59;;;;;;;5.30;2.75;;;10.40;99.90;;;;;;2068791;28;20037;-72
2022/11/06 04:47:07;;;;;;;5.03;2.10;;;10.40;99.90;;;;;;2069609;28;20029;-72
2022/11/06 04:48:09;;;;;;;8.20;2.45;;;10.50;99.90;;;;;;2069663;28;20100;-72
2022/11/06 04:49:11;;;;;;;5.20;1.73;;;10.50;99.90;;;;;;2070821;28;20038;-72
2022/11/06 04:50:14;;;;;;;6.32;2.00;;;10.50;99.90;;;;;;2071668;28;20482;-72
2022/11/06 04:51:19;;;;;;;4.70;1.73;;;10.50;99.90;;;;;;2070246;28;20030;-72
2022/11/06 04:52:26;;;;;;;6.40;2.00;;;10.50;99.90;;;;;;2071963;28;20121;-72
2022/11/06 04:53:29;;;;;;;7.03;2.03;;;10.60;99.90;;;;;;2071384;28;20048;-72
2022/11/06 04:54:31;;;;;;;4.90;2.15;;;10.60;99.90;;;;;;2070491;28;20663;-72
2022/11/06 04:55:37;;;;;;;5.38;1.90;;;10.50;99.90;;;;;;2070593;28;20034;-72
2022/11/06 04:56:38;;;;;;;5.53;1.83;;;10.60;99.90;;;;;;2071148;28;20033;-72
2022/11/06 04:57:38;;;;;;;4.63;2.03;;;10.60;99.90;;;;;;2069655;28;20129;-72
2022/11/06 04:58:39;;;;;;;4.72;1.92;;;10.50;99.90;;;;;;2069974;28;20754;-72
2022/11/06 04:59:39;;;;;;;6.22;1.55;;;10.60;99.90;;;;;;2070547;28;20026;-72
2022/11/06 05:00:45;;;;;;;7.70;1.95;;;10.50;99.90;;;;;;2071660;28;20018;-72
2022/11/06 05:01:46;;;;;;;4.10;1.70;;;10.60;99.90;;;;;;2076362;28;20038;-72
2022/11/06 05:02:46;;;;;;;5.55;2.30;;;10.60;99.90;;;;;;2076371;28;20485;-72
2022/11/06 05:03:47;;;;;;;4.93;1.65;;;10.60;99.90;;;;;;2071713;28;20033;-72
2022/11/06 05:04:47;;;;;;;7.20;1.83;;;10.60;99.90;;;;;;2070686;28;20084;-73
2022/11/06 05:05:48;;;;;;;4.32;1.63;;;10.50;99.90;;;;;;2069588;28;20565;-72
2022/11/06 05:06:49;;;;;;;5.40;2.22;;;10.50;99.90;;;;;;2070209;28;20030;-72
2022/11/06 05:07:49;;;;;;;6.28;1.80;;;10.50;99.90;;;;;;2070755;28;20486;-72
2022/11/06 05:08:50;;;;;;;5.90;1.85;;;10.50;99.90;;;;;;2070134;28;20101;-72
2022/11/06 05:09:50;;;;;;;6.60;2.30;;;10.50;99.90;;;;;;2068622;28;20034;-72
2022/11/06 05:10:51;;;;;;;6.28;1.90;;;10.50;99.90;;;;;;2070312;28;20045;-71
2022/11/06 05:11:51;;;;;;;5.43;2.38;;;10.50;99.90;;;;;;2071414;28;20068;-72
2022/11/06 05:12:52;;;;;;;9.00;2.70;;;10.50;99.90;;;;;;2070152;28;20502;-72
2022/11/06 05:13:53;;;;;;;4.20;1.95;;;10.50;99.90;;;;;;2069692;28;20029;-72
2022/11/06 05:14:53;;;;;;;3.03;1.60;;;10.50;99.90;;;;;;2071915;28;20496;-72
2022/11/06 05:15:56;;;;;;;8.25;2.35;;;10.50;99.90;;;;;;2071675;28;20030;-72
2022/11/06 05:16:57;;;;;;;6.18;1.95;;;10.50;99.90;;;;;;2071126;28;20029;-72
2022/11/06 05:17:57;;;;;;;4.45;1.50;;;10.50;99.90;;;;;;2070042;28;20102;-72
2022/11/06 05:18:58;;;;;;;6.95;1.77;;;10.50;99.90;;;;;;2070641;28;20033;-72
2022/11/06 05:19:58;;;;;;;4.70;2.03;;;10.50;99.90;;;;;;2071579;28;20025;-72
2022/11/06 05:23:40;;;;;;;6.30;1.95;;;10.40;99.90;;;;;;2071142;28;20623;-72
2022/11/06 05:24:41;;;;;;;5.35;1.95;;;10.40;99.90;;;;;;2070585;28;20025;-72
2022/11/06 05:25:42;;;;;;;7.82;2.92;;;10.40;99.90;;;;;;2068402;28;20033;-72
2022/11/06 05:26:42;;;;;;;3.50;1.83;;;10.40;99.90;;;;;;2068100;28;20538;-72
2022/11/06 05:27:43;;;;;;;4.22;2.13;;;10.40;99.90;;;;;;2068740;28;20375;-72
2022/11/06 05:28:43;;;;;;;4.97;2.00;;;10.40;99.90;;;;;;2069379;28;20024;-72
2022/11/06 05:29:44;;;;;;;7.90;2.03;;;10.40;99.90;;;;;;2068803;28;20044;-72
2022/11/06 05:30:45;;;;;;;4.07;2.08;;;10.40;99.90;;;;;;2068399;28;20041;-72
2022/11/06 05:31:45;;;;;;;6.07;2.38;;;10.40;99.90;;;;;;2070382;28;20565;-72
2022/11/06 05:32:46;;;;;;;5.68;1.92;;;10.40;99.90;;;;;;2071611;28;20025;-72
2022/11/06 05:33:46;;;;;;;4.82;2.10;;;10.40;99.90;;;;;;2071927;28;20034;-72
2022/11/06 05:34:47;;;;;;;6.47;2.00;;;10.40;99.90;;;;;;2077664;28;20093;-72
2022/11/06 05:35:47;;;;;;;4.88;1.85;;;10.40;99.90;;;;;;2076210;28;20037;-72
2022/11/06 05:36:48;;;;;;;4.47;2.08;;;10.40;99.90;;;;;;2069135;28;20037;-72
2022/11/06 05:37:49;;;;;;;7.65;2.00;;;10.40;99.90;;;;;;2069925;28;20052;-72
2022/11/06 05:38:49;;;;;;;8.45;2.33;;;10.40;99.90;;;;;;2070458;28;20081;-72
2022/11/06 05:39:50;;;;;;;6.72;2.17;;;10.40;99.90;;;;;;2069201;28;20149;-72
2022/11/06 05:40:50;;;;;;;6.88;2.45;;;10.40;99.90;;;;;;2071867;28;20041;-72
2022/11/06 05:41:51;;;;;;;5.90;2.28;;;10.40;99.90;;;;;;2070004;28;20038;-72
2022/11/06 05:42:51;;;;;;;4.93;2.28;;;10.40;99.90;;;;;;2071012;28;20087;-72
2022/11/06 05:43:52;;;;;;;6.30;2.15;;;10.40;99.90;;;;;;2068802;28;20116;-72
2022/11/06 05:44:53;;;;;;;5.95;2.10;;;10.30;99.90;;;;;;2069635;28;20053;-72
2022/11/06 05:45:53;;;;;;;3.03;2.05;;;10.40;99.90;;;;;;2070405;28;20120;-72
2022/11/06 05:46:54;;;;;;;8.45;1.95;;;10.40;99.90;;;;;;2077194;28;20025;-72
2022/11/06 05:47:54;;;;;;;5.00;1.80;;;10.40;99.90;;;;;;2068693;28;20101;-72
2022/11/06 05:48:55;;;;;;;6.88;1.88;;;10.40;99.90;;;;;;2062637;28;20053;-72
2022/11/06 05:49:55;;;;;;;6.35;2.05;;;10.40;99.90;;;;;;2070756;28;20057;-72
2022/11/06 05:51:00;;;;;;;7.78;2.28;;;10.40;99.90;;;;;;2076083;28;20033;-72
2022/11/06 05:52:01;;;;;;;6.15;2.40;;;10.30;99.90;;;;;;2071493;28;20022;-72
2022/11/06 05:53:01;;;;;;;6.82;2.30;;;10.30;99.90;;;;;;2071993;28;20076;-71
2022/11/06 05:54:03;;;;;;;6.13;1.73;;;10.30;99.90;;;;;;2067907;28;20027;-72
2022/11/06 05:55:05;;;;;;;4.75;1.90;;;10.30;99.90;;;;;;2067999;28;20122;-72
2022/11/06 05:56:06;;;;;;;8.32;2.05;;;10.30;99.90;;;;;;2068970;28;20022;-72
2022/11/06 05:57:06;;;;;;;6.47;2.03;;;10.30;99.90;;;;;;2067600;28;20034;-72
2022/11/06 05:58:07;;;;;;;7.15;2.13;;;10.30;99.90;;;;;;2071259;28;20029;-72